sensor_id;sensor_type;location;lat;lon;timestamp;temperature;humidity
59301;DHT22;45073;52.740;6.784;2024-01-30T00:01:25;8.10;99.90
59301;DHT22;45073;52.740;6.784;2024-01-30T00:03:51;8.10;99.90
59301;DHT22;45073;52.740;6.784;2024-01-30T00:06:20;8.10;99.90
59301;DHT22;45073;52.740;6.784;2024-01-30T00:08:49;8.20;99.90
59301;DHT22;45073;52.740;6.784;2024-01-30T00:11:15;8.10;99.90
59301;DHT22;45073;52.740;6.784;2024-01-30T00:13:41;8.20;99.90
59301;DHT22;45073;52.740;6.784;2024-01-30T00:16:07;8.20;99.90
59301;DHT22;45073;52.740;6.784;2024-01-30T00:18:34;8.20;99.90
59301;DHT22;45073;52.740;6.784;2024-01-30T00:21:00;8.20;99.90
59301;DHT22;45073;52.740;6.784;2024-01-30T00:23:25;8.20;99.90
59301;DHT22;45073;52.740;6.784;2024-01-30T00:25:51;8.20;99.90
59301;DHT22;45073;52.740;6.784;2024-01-30T00:28:17;8.20;99.90
59301;DHT22;45073;52.740;6.784;2024-01-30T00:30:42;8.20;99.90
59301;DHT22;45073;52.740;6.784;2024-01-30T00:33:09;8.20;99.90
59301;DHT22;45073;52.740;6.784;2024-01-30T00:35:34;8.20;99.90
59301;DHT22;45073;52.740;6.784;2024-01-30T00:38:00;8.20;99.90
59301;DHT22;45073;52.740;6.784;2024-01-30T00:40:26;8.20;99.90
59301;DHT22;45073;52.740;6.784;2024-01-30T00:42:52;8.20;99.90
59301;DHT22;45073;52.740;6.784;2024-01-30T00:45:18;8.20;99.90
59301;DHT22;45073;52.740;6.784;2024-01-30T00:47:44;8.20;99.90
59301;DHT22;45073;52.740;6.784;2024-01-30T00:50:10;8.20;99.90
59301;DHT22;45073;52.740;6.784;2024-01-30T00:52:36;8.20;99.90
59301;DHT22;45073;52.740;6.784;2024-01-30T00:55:02;8.20;99.90
59301;DHT22;45073;52.740;6.784;2024-01-30T00:57:28;8.20;99.90
59301;DHT22;45073;52.740;6.784;2024-01-30T00:59:54;8.20;99.90
59301;DHT22;45073;52.740;6.784;2024-01-30T01:02:23;8.20;99.90
59301;DHT22;45073;52.740;6.784;2024-01-30T01:04:49;8.20;99.90
59301;DHT22;45073;52.740;6.784;2024-01-30T01:07:15;8.20;99.90
59301;DHT22;45073;52.740;6.784;2024-01-30T01:09:41;8.20;99.90
59301;DHT22;45073;52.740;6.784;2024-01-30T01:12:06;8.20;99.90
59301;DHT22;45073;52.740;6.784;2024-01-30T01:14:32;8.20;99.90
59301;DHT22;45073;52.740;6.784;2024-01-30T01:16:58;8.20;99.90
59301;DHT22;45073;52.740;6.784;2024-01-30T01:19:23;8.20;99.90
59301;DHT22;45073;52.740;6.784;2024-01-30T01:21:49;8.20;99.90
59301;DHT22;45073;52.740;6.784;2024-01-30T01:24:14;8.10;99.90
59301;DHT22;45073;52.740;6.784;2024-01-30T01:26:40;8.20;99.90
59301;DHT22;45073;52.740;6.784;2024-01-30T01:29:09;8.20;99.90
59301;DHT22;45073;52.740;6.784;2024-01-30T01:31:37;8.20;99.90
59301;DHT22;45073;52.740;6.784;2024-01-30T01:34:12;8.10;99.90
59301;DHT22;45073;52.740;6.784;2024-01-30T01:36:38;8.20;99.90
59301;DHT22;45073;52.740;6.784;2024-01-30T01:39:04;8.20;99.90
59301;DHT22;45073;52.740;6.784;2024-01-30T01:41:33;8.10;99.90
59301;DHT22;45073;52.740;6.784;2024-01-30T01:44:00;8.20;99.90
59301;DHT22;45073;52.740;6.784;2024-01-30T01:46:32;8.20;99.90
59301;DHT22;45073;52.740;6.784;2024-01-30T01:49:02;8.20;99.90
59301;DHT22;45073;52.740;6.784;2024-01-30T01:51:31;8.10;99.90
59301;DHT22;45073;52.740;6.784;2024-01-30T01:54:00;8.20;99.90
59301;DHT22;45073;52.740;6.784;2024-01-30T01:56:28;8.20;99.90
59301;DHT22;45073;52.740;6.784;2024-01-30T01:58:54;8.10;99.90
59301;DHT22;45073;52.740;6.784;2024-01-30T02:01:21;8.10;99.90
59301;DHT22;45073;52.740;6.784;2024-01-30T02:03:47;8.10;99.90
59301;DHT22;45073;52.740;6.784;2024-01-30T02:06:13;8.20;99.90
59301;DHT22;45073;52.740;6.784;2024-01-30T02:08:40;8.20;99.90
59301;DHT22;45073;52.740;6.784;2024-01-30T02:11:06;8.20;99.90
59301;DHT22;45073;52.740;6.784;2024-01-30T02:13:32;8.10;99.90
59301;DHT22;45073;52.740;6.784;2024-01-30T02:15:57;8.10;99.90
59301;DHT22;45073;52.740;6.784;2024-01-30T02:18:23;8.10;99.90
59301;DHT22;45073;52.740;6.784;2024-01-30T02:20:49;8.10;99.90
59301;DHT22;45073;52.740;6.784;2024-01-30T02:23:16;8.10;99.90
59301;DHT22;45073;52.740;6.784;2024-01-30T02:25:42;8.10;99.90
59301;DHT22;45073;52.740;6.784;2024-01-30T02:28:14;8.10;99.90
59301;DHT22;45073;52.740;6.784;2024-01-30T02:30:42;8.10;99.90
59301;DHT22;45073;52.740;6.784;2024-01-30T02:33:08;8.10;99.90
59301;DHT22;45073;52.740;6.784;2024-01-30T02:35:33;8.10;99.90
59301;DHT22;45073;52.740;6.784;2024-01-30T02:37:59;8.10;99.90
59301;DHT22;45073;52.740;6.784;2024-01-30T02:40:25;8.20;99.90
59301;DHT22;45073;52.740;6.784;2024-01-30T02:42:51;8.10;99.90
59301;DHT22;45073;52.740;6.784;2024-01-30T02:45:16;8.10;99.90
59301;DHT22;45073;52.740;6.784;2024-01-30T02:47:42;8.10;99.90
59301;DHT22;45073;52.740;6.784;2024-01-30T02:50:08;8.10;99.90
59301;DHT22;45073;52.740;6.784;2024-01-30T02:52:34;8.10;99.90
59301;DHT22;45073;52.740;6.784;2024-01-30T02:55:00;8.10;99.90
59301;DHT22;45073;52.740;6.784;2024-01-30T02:57:25;8.20;99.90
59301;DHT22;45073;52.740;6.784;2024-01-30T02:59:51;8.10;99.90
59301;DHT22;45073;52.740;6.784;2024-01-30T03:02:17;8.10;99.90
59301;DHT22;45073;52.740;6.784;2024-01-30T03:04:42;8.10;99.90
59301;DHT22;45073;52.740;6.784;2024-01-30T03:07:08;8.10;99.90
59301;DHT22;45073;52.740;6.784;2024-01-30T03:09:34;8.10;99.90
59301;DHT22;45073;52.740;6.784;2024-01-30T03:12:00;8.20;99.90
59301;DHT22;45073;52.740;6.784;2024-01-30T03:14:26;8.10;99.90
59301;DHT22;45073;52.740;6.784;2024-01-30T03:16:52;8.10;99.90
59301;DHT22;45073;52.740;6.784;2024-01-30T03:19:17;8.20;99.90
59301;DHT22;45073;52.740;6.784;2024-01-30T03:21:44;8.20;99.90
59301;DHT22;45073;52.740;6.784;2024-01-30T03:24:09;8.20;99.90
59301;DHT22;45073;52.740;6.784;2024-01-30T03:26:35;8.20;99.90
59301;DHT22;45073;52.740;6.784;2024-01-30T03:29:01;8.20;99.90
59301;DHT22;45073;52.740;6.784;2024-01-30T03:31:27;8.20;99.90
59301;DHT22;45073;52.740;6.784;2024-01-30T03:33:52;8.20;99.90
59301;DHT22;45073;52.740;6.784;2024-01-30T03:36:18;8.20;99.90
59301;DHT22;45073;52.740;6.784;2024-01-30T03:38:44;8.20;99.90
59301;DHT22;45073;52.740;6.784;2024-01-30T03:41:09;8.10;99.90
59301;DHT22;45073;52.740;6.784;2024-01-30T03:43:36;8.10;99.90
59301;DHT22;45073;52.740;6.784;2024-01-30T03:46:02;8.10;99.90
59301;DHT22;45073;52.740;6.784;2024-01-30T03:48:29;8.10;99.90
59301;DHT22;45073;52.740;6.784;2024-01-30T03:50:54;8.10;99.90
59301;DHT22;45073;52.740;6.784;2024-01-30T03:53:20;8.20;99.90
59301;DHT22;45073;52.740;6.784;2024-01-30T03:55:46;8.10;99.90
59301;DHT22;45073;52.740;6.784;2024-01-30T03:58:12;8.20;99.90
59301;DHT22;45073;52.740;6.784;2024-01-30T04:00:37;8.20;99.90
59301;DHT22;45073;52.740;6.784;2024-01-30T04:03:03;8.20;99.90
59301;DHT22;45073;52.740;6.784;2024-01-30T04:05:29;8.20;99.90
59301;DHT22;45073;52.740;6.784;2024-01-30T04:07:55;8.20;99.90
59301;DHT22;45073;52.740;6.784;2024-01-30T04:10:20;8.20;99.90
59301;DHT22;45073;52.740;6.784;2024-01-30T04:12:46;8.20;99.90
59301;DHT22;45073;52.740;6.784;2024-01-30T04:15:12;8.20;99.90
59301;DHT22;45073;52.740;6.784;2024-01-30T04:17:39;8.20;99.90
59301;DHT22;45073;52.740;6.784;2024-01-30T04:20:05;8.20;99.90
59301;DHT22;45073;52.740;6.784;2024-01-30T04:22:31;8.30;99.90
59301;DHT22;45073;52.740;6.784;2024-01-30T04:24:57;8.30;99.90
59301;DHT22;45073;52.740;6.784;2024-01-30T04:27:22;8.30;99.90
59301;DHT22;45073;52.740;6.784;2024-01-30T04:29:48;8.30;99.90
59301;DHT22;45073;52.740;6.784;2024-01-30T04:32:14;8.30;99.90
59301;DHT22;45073;52.740;6.784;2024-01-30T04:34:39;8.30;99.90
59301;DHT22;45073;52.740;6.784;2024-01-30T04:37:05;8.30;99.90
59301;DHT22;45073;52.740;6.784;2024-01-30T04:39:33;8.30;99.90
59301;DHT22;45073;52.740;6.784;2024-01-30T04:41:58;8.30;99.90
59301;DHT22;45073;52.740;6.784;2024-01-30T04:44:25;8.30;99.90
59301;DHT22;45073;52.740;6.784;2024-01-30T04:46:50;8.30;99.90
59301;DHT22;45073;52.740;6.784;2024-01-30T04:49:16;8.30;99.90
59301;DHT22;45073;52.740;6.784;2024-01-30T04:51:42;8.30;99.90
59301;DHT22;45073;52.740;6.784;2024-01-30T04:54:07;8.30;99.90
59301;DHT22;45073;52.740;6.784;2024-01-30T04:56:33;8.40;99.90
59301;DHT22;45073;52.740;6.784;2024-01-30T04:58:59;8.40;99.90
59301;DHT22;45073;52.740;6.784;2024-01-30T05:01:25;8.40;99.90
59301;DHT22;45073;52.740;6.784;2024-01-30T05:03:51;8.40;99.90
59301;DHT22;45073;52.740;6.784;2024-01-30T05:06:26;8.40;99.90
59301;DHT22;45073;52.740;6.784;2024-01-30T05:08:53;8.40;99.90
59301;DHT22;45073;52.740;6.784;2024-01-30T05:11:18;8.40;99.90
59301;DHT22;45073;52.740;6.784;2024-01-30T05:13:44;8.40;99.90
59301;DHT22;45073;52.740;6.784;2024-01-30T05:16:10;8.40;99.90
59301;DHT22;45073;52.740;6.784;2024-01-30T05:18:35;8.40;99.90
59301;DHT22;45073;52.740;6.784;2024-01-30T05:21:02;8.40;99.90
59301;DHT22;45073;52.740;6.784;2024-01-30T05:23:28;8.40;99.90
59301;DHT22;45073;52.740;6.784;2024-01-30T05:25:53;8.40;99.90
59301;DHT22;45073;52.740;6.784;2024-01-30T05:28:19;8.40;99.90
59301;DHT22;45073;52.740;6.784;2024-01-30T05:30:44;8.40;99.90
59301;DHT22;45073;52.740;6.784;2024-01-30T05:33:10;8.40;99.90
59301;DHT22;45073;52.740;6.784;2024-01-30T05:35:37;8.40;99.90
59301;DHT22;45073;52.740;6.784;2024-01-30T05:38:03;8.40;99.90
59301;DHT22;45073;52.740;6.784;2024-01-30T05:40:30;8.40;99.90
59301;DHT22;45073;52.740;6.784;2024-01-30T05:42:56;8.40;99.90
59301;DHT22;45073;52.740;6.784;2024-01-30T05:45:21;8.40;99.90
59301;DHT22;45073;52.740;6.784;2024-01-30T05:47:48;8.40;99.90
59301;DHT22;45073;52.740;6.784;2024-01-30T05:50:14;8.40;99.90
59301;DHT22;45073;52.740;6.784;2024-01-30T05:52:40;8.40;99.90
59301;DHT22;45073;52.740;6.784;2024-01-30T05:55:06;8.40;99.90
59301;DHT22;45073;52.740;6.784;2024-01-30T05:57:32;8.40;99.90
59301;DHT22;45073;52.740;6.784;2024-01-30T05:59:58;8.40;99.90
59301;DHT22;45073;52.740;6.784;2024-01-30T06:02:23;8.40;99.90
59301;DHT22;45073;52.740;6.784;2024-01-30T06:04:49;8.40;99.90
59301;DHT22;45073;52.740;6.784;2024-01-30T06:07:15;8.40;99.90
59301;DHT22;45073;52.740;6.784;2024-01-30T06:09:40;8.50;99.90
59301;DHT22;45073;52.740;6.784;2024-01-30T06:12:06;8.50;99.90
59301;DHT22;45073;52.740;6.784;2024-01-30T06:14:32;8.50;99.90
59301;DHT22;45073;52.740;6.784;2024-01-30T06:16:59;8.50;99.90
59301;DHT22;45073;52.740;6.784;2024-01-30T06:19:24;8.50;99.90
59301;DHT22;45073;52.740;6.784;2024-01-30T06:21:50;8.50;99.90
59301;DHT22;45073;52.740;6.784;2024-01-30T06:24:16;8.50;99.90
59301;DHT22;45073;52.740;6.784;2024-01-30T06:26:42;8.50;99.90
59301;DHT22;45073;52.740;6.784;2024-01-30T06:29:08;8.50;99.90
59301;DHT22;45073;52.740;6.784;2024-01-30T06:31:42;8.50;99.90
59301;DHT22;45073;52.740;6.784;2024-01-30T06:34:09;8.50;99.90
59301;DHT22;45073;52.740;6.784;2024-01-30T06:36:35;8.60;99.90
59301;DHT22;45073;52.740;6.784;2024-01-30T06:39:02;8.60;99.90
59301;DHT22;45073;52.740;6.784;2024-01-30T06:41:28;8.60;99.90
59301;DHT22;45073;52.740;6.784;2024-01-30T06:43:53;8.60;99.90
59301;DHT22;45073;52.740;6.784;2024-01-30T06:46:19;8.70;99.90
59301;DHT22;45073;52.740;6.784;2024-01-30T06:48:45;8.70;99.90
59301;DHT22;45073;52.740;6.784;2024-01-30T06:51:11;8.80;99.90
59301;DHT22;45073;52.740;6.784;2024-01-30T06:53:37;8.80;99.90
59301;DHT22;45073;52.740;6.784;2024-01-30T06:56:03;8.80;99.90
59301;DHT22;45073;52.740;6.784;2024-01-30T06:58:29;8.70;99.90
59301;DHT22;45073;52.740;6.784;2024-01-30T07:00:55;8.80;99.90
59301;DHT22;45073;52.740;6.784;2024-01-30T07:03:21;8.80;99.90
59301;DHT22;45073;52.740;6.784;2024-01-30T07:05:47;8.80;99.90
59301;DHT22;45073;52.740;6.784;2024-01-30T07:08:12;8.80;99.90
59301;DHT22;45073;52.740;6.784;2024-01-30T07:10:38;8.80;99.90
59301;DHT22;45073;52.740;6.784;2024-01-30T07:13:04;8.80;99.90
59301;DHT22;45073;52.740;6.784;2024-01-30T07:15:31;8.80;99.90
59301;DHT22;45073;52.740;6.784;2024-01-30T07:17:56;8.70;99.90
59301;DHT22;45073;52.740;6.784;2024-01-30T07:20:22;8.80;99.90
59301;DHT22;45073;52.740;6.784;2024-01-30T07:22:48;8.70;99.90
59301;DHT22;45073;52.740;6.784;2024-01-30T07:25:14;8.80;99.90
59301;DHT22;45073;52.740;6.784;2024-01-30T07:27:39;8.80;99.90
59301;DHT22;45073;52.740;6.784;2024-01-30T07:30:06;8.80;99.90
59301;DHT22;45073;52.740;6.784;2024-01-30T07:32:32;8.80;99.90
59301;DHT22;45073;52.740;6.784;2024-01-30T07:34:57;8.80;99.90
59301;DHT22;45073;52.740;6.784;2024-01-30T07:37:23;8.80;99.90
59301;DHT22;45073;52.740;6.784;2024-01-30T07:39:49;8.80;99.90
59301;DHT22;45073;52.740;6.784;2024-01-30T07:42:15;8.80;99.90
59301;DHT22;45073;52.740;6.784;2024-01-30T07:44:41;8.80;99.90
59301;DHT22;45073;52.740;6.784;2024-01-30T07:47:07;8.90;99.90
59301;DHT22;45073;52.740;6.784;2024-01-30T07:49:33;8.90;99.90
59301;DHT22;45073;52.740;6.784;2024-01-30T07:51:58;8.90;99.90
59301;DHT22;45073;52.740;6.784;2024-01-30T07:54:27;8.90;99.90
59301;DHT22;45073;52.740;6.784;2024-01-30T07:56:53;8.90;99.90
59301;DHT22;45073;52.740;6.784;2024-01-30T07:59:18;8.90;99.90
59301;DHT22;45073;52.740;6.784;2024-01-30T08:01:47;8.90;99.90
59301;DHT22;45073;52.740;6.784;2024-01-30T08:04:12;9.00;99.90
59301;DHT22;45073;52.740;6.784;2024-01-30T08:06:38;9.00;99.90
59301;DHT22;45073;52.740;6.784;2024-01-30T08:09:04;9.00;99.90
59301;DHT22;45073;52.740;6.784;2024-01-30T08:11:33;9.00;99.90
59301;DHT22;45073;52.740;6.784;2024-01-30T08:13:58;9.10;99.90
59301;DHT22;45073;52.740;6.784;2024-01-30T08:16:24;9.10;99.90
59301;DHT22;45073;52.740;6.784;2024-01-30T08:18:50;9.10;99.90
59301;DHT22;45073;52.740;6.784;2024-01-30T08:21:15;9.10;99.90
59301;DHT22;45073;52.740;6.784;2024-01-30T08:23:42;9.10;99.90
59301;DHT22;45073;52.740;6.784;2024-01-30T08:26:08;9.10;99.90
59301;DHT22;45073;52.740;6.784;2024-01-30T08:28:34;9.20;99.90
59301;DHT22;45073;52.740;6.784;2024-01-30T08:30:59;9.10;99.90
59301;DHT22;45073;52.740;6.784;2024-01-30T08:33:25;9.20;99.90
59301;DHT22;45073;52.740;6.784;2024-01-30T08:35:50;9.20;99.90
59301;DHT22;45073;52.740;6.784;2024-01-30T08:38:16;9.20;99.90
59301;DHT22;45073;52.740;6.784;2024-01-30T08:40:42;9.20;99.90
59301;DHT22;45073;52.740;6.784;2024-01-30T08:43:07;9.20;99.90
59301;DHT22;45073;52.740;6.784;2024-01-30T08:45:35;9.30;99.90
59301;DHT22;45073;52.740;6.784;2024-01-30T08:48:01;9.30;99.90
59301;DHT22;45073;52.740;6.784;2024-01-30T08:50:26;9.30;99.90
59301;DHT22;45073;52.740;6.784;2024-01-30T08:52:52;9.40;99.90
59301;DHT22;45073;52.740;6.784;2024-01-30T08:55:18;9.40;99.90
59301;DHT22;45073;52.740;6.784;2024-01-30T08:57:43;9.40;99.90
59301;DHT22;45073;52.740;6.784;2024-01-30T09:00:09;9.50;99.90
59301;DHT22;45073;52.740;6.784;2024-01-30T09:02:36;9.50;99.90
59301;DHT22;45073;52.740;6.784;2024-01-30T09:05:02;9.50;99.90
59301;DHT22;45073;52.740;6.784;2024-01-30T09:07:28;9.60;99.90
59301;DHT22;45073;52.740;6.784;2024-01-30T09:09:53;9.60;99.90
59301;DHT22;45073;52.740;6.784;2024-01-30T09:12:19;9.60;99.90
59301;DHT22;45073;52.740;6.784;2024-01-30T09:14:45;9.70;99.90
59301;DHT22;45073;52.740;6.784;2024-01-30T09:17:10;9.70;99.90
59301;DHT22;45073;52.740;6.784;2024-01-30T09:19:36;9.70;99.90
59301;DHT22;45073;52.740;6.784;2024-01-30T09:22:02;9.70;99.90
59301;DHT22;45073;52.740;6.784;2024-01-30T09:24:28;9.70;99.90
59301;DHT22;45073;52.740;6.784;2024-01-30T09:26:53;9.70;99.90
59301;DHT22;45073;52.740;6.784;2024-01-30T09:29:19;9.70;99.90
59301;DHT22;45073;52.740;6.784;2024-01-30T09:31:45;9.80;99.90
59301;DHT22;45073;52.740;6.784;2024-01-30T09:34:11;9.80;99.90
59301;DHT22;45073;52.740;6.784;2024-01-30T09:36:37;9.80;99.90
59301;DHT22;45073;52.740;6.784;2024-01-30T09:39:03;9.80;99.90
59301;DHT22;45073;52.740;6.784;2024-01-30T09:41:32;9.90;99.90
59301;DHT22;45073;52.740;6.784;2024-01-30T09:43:57;9.90;99.90
59301;DHT22;45073;52.740;6.784;2024-01-30T09:46:27;9.90;99.90
59301;DHT22;45073;52.740;6.784;2024-01-30T09:48:55;9.90;99.90
59301;DHT22;45073;52.740;6.784;2024-01-30T09:51:22;9.90;99.90
59301;DHT22;45073;52.740;6.784;2024-01-30T09:53:48;9.90;99.90
59301;DHT22;45073;52.740;6.784;2024-01-30T09:56:14;9.90;99.90
59301;DHT22;45073;52.740;6.784;2024-01-30T09:58:40;9.90;99.90
59301;DHT22;45073;52.740;6.784;2024-01-30T10:01:06;9.90;99.90
59301;DHT22;45073;52.740;6.784;2024-01-30T10:03:32;10.00;99.90
59301;DHT22;45073;52.740;6.784;2024-01-30T10:05:58;10.00;99.90
59301;DHT22;45073;52.740;6.784;2024-01-30T10:08:26;10.00;99.90
59301;DHT22;45073;52.740;6.784;2024-01-30T10:10:52;10.10;99.90
59301;DHT22;45073;52.740;6.784;2024-01-30T10:13:18;10.10;99.90
59301;DHT22;45073;52.740;6.784;2024-01-30T10:15:44;10.20;99.90
59301;DHT22;45073;52.740;6.784;2024-01-30T10:18:10;10.30;99.90
59301;DHT22;45073;52.740;6.784;2024-01-30T10:20:37;10.30;99.90
59301;DHT22;45073;52.740;6.784;2024-01-30T10:23:03;10.30;99.90
59301;DHT22;45073;52.740;6.784;2024-01-30T10:25:31;10.40;99.90
59301;DHT22;45073;52.740;6.784;2024-01-30T10:27:58;10.40;99.90
59301;DHT22;45073;52.740;6.784;2024-01-30T10:30:24;10.50;99.90
59301;DHT22;45073;52.740;6.784;2024-01-30T10:32:50;10.50;99.90
59301;DHT22;45073;52.740;6.784;2024-01-30T10:35:17;10.50;99.90
59301;DHT22;45073;52.740;6.784;2024-01-30T10:37:49;10.60;99.90
59301;DHT22;45073;52.740;6.784;2024-01-30T10:40:15;10.60;99.90
59301;DHT22;45073;52.740;6.784;2024-01-30T10:42:43;10.60;99.90
59301;DHT22;45073;52.740;6.784;2024-01-30T10:45:13;10.70;99.90
59301;DHT22;45073;52.740;6.784;2024-01-30T10:47:53;10.70;99.90
59301;DHT22;45073;52.740;6.784;2024-01-30T10:50:20;10.70;99.90
59301;DHT22;45073;52.740;6.784;2024-01-30T10:52:46;10.70;99.90
59301;DHT22;45073;52.740;6.784;2024-01-30T10:55:13;10.70;99.90
59301;DHT22;45073;52.740;6.784;2024-01-30T10:57:39;10.80;99.90
59301;DHT22;45073;52.740;6.784;2024-01-30T11:00:10;10.80;99.90
59301;DHT22;45073;52.740;6.784;2024-01-30T11:02:42;10.90;99.90
59301;DHT22;45073;52.740;6.784;2024-01-30T11:05:09;10.80;99.90
59301;DHT22;45073;52.740;6.784;2024-01-30T11:07:35;10.80;99.90
59301;DHT22;45073;52.740;6.784;2024-01-30T11:10:04;10.80;99.90
59301;DHT22;45073;52.740;6.784;2024-01-30T11:12:33;10.80;99.90
59301;DHT22;45073;52.740;6.784;2024-01-30T11:15:03;10.80;99.90
59301;DHT22;45073;52.740;6.784;2024-01-30T11:20:09;10.80;99.90
59301;DHT22;45073;52.740;6.784;2024-01-30T11:22:35;10.80;99.90
59301;DHT22;45073;52.740;6.784;2024-01-30T11:25:01;10.80;99.90
59301;DHT22;45073;52.740;6.784;2024-01-30T11:27:30;10.90;99.90
59301;DHT22;45073;52.740;6.784;2024-01-30T11:30:02;10.90;99.90
59301;DHT22;45073;52.740;6.784;2024-01-30T11:32:28;10.90;99.90
59301;DHT22;45073;52.740;6.784;2024-01-30T11:34:54;10.90;99.90
59301;DHT22;45073;52.740;6.784;2024-01-30T11:37:21;10.90;99.90
59301;DHT22;45073;52.740;6.784;2024-01-30T11:39:51;10.90;99.90
59301;DHT22;45073;52.740;6.784;2024-01-30T11:42:17;10.90;99.90
59301;DHT22;45073;52.740;6.784;2024-01-30T11:44:47;10.90;99.90
59301;DHT22;45073;52.740;6.784;2024-01-30T11:47:13;11.00;99.90
59301;DHT22;45073;52.740;6.784;2024-01-30T11:49:39;11.00;99.90
59301;DHT22;45073;52.740;6.784;2024-01-30T11:52:05;11.00;99.90
59301;DHT22;45073;52.740;6.784;2024-01-30T11:54:31;11.00;99.90
59301;DHT22;45073;52.740;6.784;2024-01-30T11:56:57;11.00;99.90
59301;DHT22;45073;52.740;6.784;2024-01-30T11:59:22;11.00;99.90
59301;DHT22;45073;52.740;6.784;2024-01-30T12:01:48;11.10;99.90
59301;DHT22;45073;52.740;6.784;2024-01-30T12:04:15;11.10;99.90
59301;DHT22;45073;52.740;6.784;2024-01-30T12:06:40;11.10;99.90
59301;DHT22;45073;52.740;6.784;2024-01-30T12:09:06;11.10;99.90
59301;DHT22;45073;52.740;6.784;2024-01-30T12:11:45;11.10;99.90
59301;DHT22;45073;52.740;6.784;2024-01-30T12:14:12;11.10;99.90
59301;DHT22;45073;52.740;6.784;2024-01-30T12:16:37;11.20;99.90
59301;DHT22;45073;52.740;6.784;2024-01-30T12:19:03;11.20;99.90
59301;DHT22;45073;52.740;6.784;2024-01-30T12:21:29;11.30;99.90
59301;DHT22;45073;52.740;6.784;2024-01-30T12:23:56;11.30;99.90
59301;DHT22;45073;52.740;6.784;2024-01-30T12:26:23;11.40;99.90
59301;DHT22;45073;52.740;6.784;2024-01-30T12:28:49;11.50;99.90
59301;DHT22;45073;52.740;6.784;2024-01-30T12:31:17;11.50;99.90
59301;DHT22;45073;52.740;6.784;2024-01-30T12:33:43;11.60;99.90
59301;DHT22;45073;52.740;6.784;2024-01-30T12:36:08;11.70;99.90
59301;DHT22;45073;52.740;6.784;2024-01-30T12:38:34;11.80;99.90
59301;DHT22;45073;52.740;6.784;2024-01-30T12:41:00;11.80;99.90
59301;DHT22;45073;52.740;6.784;2024-01-30T12:43:25;11.80;99.90
59301;DHT22;45073;52.740;6.784;2024-01-30T12:45:53;11.80;99.90
59301;DHT22;45073;52.740;6.784;2024-01-30T12:48:18;11.80;99.90
59301;DHT22;45073;52.740;6.784;2024-01-30T12:50:44;11.70;99.90
59301;DHT22;45073;52.740;6.784;2024-01-30T12:53:10;11.70;99.90
59301;DHT22;45073;52.740;6.784;2024-01-30T12:55:35;11.70;99.90
59301;DHT22;45073;52.740;6.784;2024-01-30T12:58:01;11.70;99.90
59301;DHT22;45073;52.740;6.784;2024-01-30T13:00:27;11.70;99.90
59301;DHT22;45073;52.740;6.784;2024-01-30T13:02:53;11.60;99.90
59301;DHT22;45073;52.740;6.784;2024-01-30T13:05:18;11.60;99.90
59301;DHT22;45073;52.740;6.784;2024-01-30T13:07:44;11.60;99.90
59301;DHT22;45073;52.740;6.784;2024-01-30T13:10:10;11.60;99.90
59301;DHT22;45073;52.740;6.784;2024-01-30T13:12:36;11.50;99.90
59301;DHT22;45073;52.740;6.784;2024-01-30T13:15:02;11.40;99.90
59301;DHT22;45073;52.740;6.784;2024-01-30T13:17:30;11.40;99.90
59301;DHT22;45073;52.740;6.784;2024-01-30T13:19:56;11.30;99.90
59301;DHT22;45073;52.740;6.784;2024-01-30T13:22:21;11.20;99.90
59301;DHT22;45073;52.740;6.784;2024-01-30T13:24:47;11.20;99.90
59301;DHT22;45073;52.740;6.784;2024-01-30T13:27:13;11.10;99.90
59301;DHT22;45073;52.740;6.784;2024-01-30T13:29:39;11.30;99.90
59301;DHT22;45073;52.740;6.784;2024-01-30T13:32:05;11.80;99.90
59301;DHT22;45073;52.740;6.784;2024-01-30T13:34:31;11.80;99.90
59301;DHT22;45073;52.740;6.784;2024-01-30T13:36:57;11.60;99.90
59301;DHT22;45073;52.740;6.784;2024-01-30T13:39:22;11.50;99.90
59301;DHT22;45073;52.740;6.784;2024-01-30T13:41:49;11.40;99.90
59301;DHT22;45073;52.740;6.784;2024-01-30T13:44:15;11.40;99.90
59301;DHT22;45073;52.740;6.784;2024-01-30T13:46:43;11.30;99.90
59301;DHT22;45073;52.740;6.784;2024-01-30T13:49:08;11.20;99.90
59301;DHT22;45073;52.740;6.784;2024-01-30T13:51:34;11.10;99.90
59301;DHT22;45073;52.740;6.784;2024-01-30T13:54:00;11.00;99.90
59301;DHT22;45073;52.740;6.784;2024-01-30T13:56:25;10.90;99.90
59301;DHT22;45073;52.740;6.784;2024-01-30T13:58:52;10.90;99.90
59301;DHT22;45073;52.740;6.784;2024-01-30T14:01:18;10.80;99.90
59301;DHT22;45073;52.740;6.784;2024-01-30T14:03:44;10.70;99.90
59301;DHT22;45073;52.740;6.784;2024-01-30T14:06:10;10.60;99.90
59301;DHT22;45073;52.740;6.784;2024-01-30T14:08:36;10.60;99.90
59301;DHT22;45073;52.740;6.784;2024-01-30T14:11:02;10.60;99.90
59301;DHT22;45073;52.740;6.784;2024-01-30T14:13:27;10.50;99.90
59301;DHT22;45073;52.740;6.784;2024-01-30T14:15:53;10.40;99.90
59301;DHT22;45073;52.740;6.784;2024-01-30T14:18:19;10.40;99.90
59301;DHT22;45073;52.740;6.784;2024-01-30T14:20:45;10.40;99.90
59301;DHT22;45073;52.740;6.784;2024-01-30T14:23:11;10.40;99.90
59301;DHT22;45073;52.740;6.784;2024-01-30T14:25:37;10.40;99.90
59301;DHT22;45073;52.740;6.784;2024-01-30T14:28:03;10.40;99.90
59301;DHT22;45073;52.740;6.784;2024-01-30T14:30:29;10.40;99.90
59301;DHT22;45073;52.740;6.784;2024-01-30T14:32:54;10.40;99.90
59301;DHT22;45073;52.740;6.784;2024-01-30T14:35:22;10.30;99.90
59301;DHT22;45073;52.740;6.784;2024-01-30T14:37:47;10.30;99.90
59301;DHT22;45073;52.740;6.784;2024-01-30T14:40:13;10.30;99.90
59301;DHT22;45073;52.740;6.784;2024-01-30T14:42:39;10.30;99.90
59301;DHT22;45073;52.740;6.784;2024-01-30T14:45:05;10.30;99.90
59301;DHT22;45073;52.740;6.784;2024-01-30T14:47:31;10.20;99.90
59301;DHT22;45073;52.740;6.784;2024-01-30T14:49:57;10.20;99.90
59301;DHT22;45073;52.740;6.784;2024-01-30T14:52:23;10.20;99.90
59301;DHT22;45073;52.740;6.784;2024-01-30T14:54:49;10.20;99.90
59301;DHT22;45073;52.740;6.784;2024-01-30T14:57:15;10.20;99.90
59301;DHT22;45073;52.740;6.784;2024-01-30T14:59:40;10.10;99.90
59301;DHT22;45073;52.740;6.784;2024-01-30T15:02:06;10.10;99.90
59301;DHT22;45073;52.740;6.784;2024-01-30T15:04:33;10.10;99.90
59301;DHT22;45073;52.740;6.784;2024-01-30T15:06:59;10.10;99.90
59301;DHT22;45073;52.740;6.784;2024-01-30T15:09:25;10.10;99.90
59301;DHT22;45073;52.740;6.784;2024-01-30T15:11:52;10.00;99.90
59301;DHT22;45073;52.740;6.784;2024-01-30T15:14:18;10.00;99.90
59301;DHT22;45073;52.740;6.784;2024-01-30T15:16:44;10.00;99.90
59301;DHT22;45073;52.740;6.784;2024-01-30T15:19:10;9.90;99.90
59301;DHT22;45073;52.740;6.784;2024-01-30T15:21:35;9.90;99.90
59301;DHT22;45073;52.740;6.784;2024-01-30T15:24:02;9.80;99.90
59301;DHT22;45073;52.740;6.784;2024-01-30T15:26:28;9.80;99.90
59301;DHT22;45073;52.740;6.784;2024-01-30T15:28:54;9.70;99.90
59301;DHT22;45073;52.740;6.784;2024-01-30T15:31:20;9.60;99.90
59301;DHT22;45073;52.740;6.784;2024-01-30T15:33:46;9.50;99.90
59301;DHT22;45073;52.740;6.784;2024-01-30T15:36:12;9.50;99.90